Time;durP1;ratioP1;P1;durP2;ratioP2;P2;SDS_P1;SDS_P2;PMS_P1;PMS_P2;Temp;Humidity;BMP_temperature;BMP_pressure;BME280_temperature;BME280_humidity;BME280_pressure;Samples;Min_cycle;Max_cycle;Signal;HPM_P1;HPM_P2
2023/07/04 00:01:28;;;;;;;32.53;29.55;;;15.80;1.00;;;;;;5048927;28;20335;-58
2023/07/04 00:03:56;;;;;;;34.30;31.15;;;15.90;1.00;;;;;;5034420;28;20398;-57
2023/07/04 00:06:23;;;;;;;34.08;30.30;;;15.90;1.00;;;;;;5049110;28;20045;-58
2023/07/04 00:08:50;;;;;;;33.08;29.77;;;15.90;1.00;;;;;;5039492;28;20083;-58
2023/07/04 00:11:16;;;;;;;32.50;29.50;;;15.80;1.00;;;;;;5037460;28;20048;-57
2023/07/04 00:13:42;;;;;;;31.65;28.95;;;15.90;1.00;;;;;;5040142;28;20116;-58
2023/07/04 00:16:10;;;;;;;32.20;29.23;;;15.90;1.00;;;;;;5048040;28;20128;-58
2023/07/04 00:18:36;;;;;;;31.83;29.02;;;15.90;1.00;;;;;;5041096;28;20235;-58
2023/07/04 00:21:03;;;;;;;32.03;29.13;;;15.80;1.00;;;;;;5048916;28;20446;-58
2023/07/04 00:23:34;;;;;;;33.80;30.63;;;15.80;1.00;;;;;;5040334;28;20087;-58
2023/07/04 00:26:01;;;;;;;31.38;28.48;;;15.90;1.00;;;;;;5051153;28;20036;-58
2023/07/04 00:28:27;;;;;;;31.75;28.92;;;15.80;1.00;;;;;;5044597;28;20083;-57
2023/07/04 00:30:54;;;;;;;30.77;27.90;;;15.80;1.00;;;;;;5051352;28;20442;-57
2023/07/04 00:33:24;;;;;;;31.30;28.35;;;15.80;1.00;;;;;;5044873;28;20041;-57
2023/07/04 00:35:59;;;;;;;31.30;28.48;;;15.90;1.00;;;;;;5052644;28;20044;-58
2023/07/04 00:38:25;;;;;;;31.95;28.80;;;15.90;1.00;;;;;;5044754;28;20543;-58
2023/07/04 00:40:51;;;;;;;33.05;29.38;;;16.00;1.00;;;;;;5052548;28;20045;-58
2023/07/04 00:43:16;;;;;;;30.30;27.45;;;16.10;1.00;;;;;;5044982;28;20053;-58
2023/07/04 00:45:43;;;;;;;30.80;28.02;;;16.30;99.90;;;;;;5052865;28;20501;-58
2023/07/04 00:48:12;;;;;;;29.88;27.25;;;16.10;99.90;;;;;;5045111;28;20034;-57
2023/07/04 00:50:49;;;;;;;30.23;27.42;;;16.00;99.90;;;;;;5050963;28;20538;-58
2023/07/04 00:53:16;;;;;;;29.02;26.33;;;16.10;99.90;;;;;;5068567;28;20041;-57
2023/07/04 00:55:48;;;;;;;28.20;25.30;;;16.00;99.90;;;;;;5052573;28;20498;-58
2023/07/04 00:58:15;;;;;;;27.60;25.17;;;16.00;99.90;;;;;;5043140;28;20091;-58
2023/07/04 01:00:41;;;;;;;28.23;25.75;;;16.10;99.90;;;;;;5052177;28;20029;-57
2023/07/04 01:03:16;;;;;;;29.00;26.27;;;16.10;85.30;;;;;;5051943;28;20029;-57
2023/07/04 01:05:46;;;;;;;29.03;26.70;;;16.10;15.00;;;;;;5052327;28;20575;-57
2023/07/04 01:08:27;;;;;;;27.77;25.25;;;16.00;20.10;;;;;;5052246;28;20275;-57
2023/07/04 01:10:54;;;;;;;26.90;24.60;;;16.10;1.00;;;;;;5029254;28;20052;-57
2023/07/04 01:13:35;;;;;;;26.55;24.08;;;16.10;1.00;;;;;;5031635;28;20041;-58
2023/07/04 01:16:11;;;;;;;24.30;22.02;;;16.00;1.00;;;;;;5051489;28;20090;-57
2023/07/04 01:18:38;;;;;;;27.45;24.85;;;16.00;1.00;;;;;;5051857;28;20139;-57
2023/07/04 01:21:06;;;;;;;27.00;24.73;;;16.00;1.00;;;;;;5052214;28;20339;-57
2023/07/04 01:23:47;;;;;;;27.58;25.05;;;16.10;1.00;;;;;;5051797;28;20045;-57
2023/07/04 01:26:37;;;;;;;26.92;24.25;;;16.10;1.00;;;;;;5052134;28;20437;-57
2023/07/04 01:29:07;;;;;;;22.95;20.70;;;16.00;1.00;;;;;;5031233;28;20067;-57
2023/07/04 01:31:35;;;;;;;26.35;23.83;;;16.10;99.90;;;;;;5051595;28;20045;-57
2023/07/04 01:34:03;;;;;;;24.35;21.90;;;16.10;99.90;;;;;;5050213;28;20389;-57
2023/07/04 01:36:34;;;;;;;23.60;21.52;;;16.20;99.90;;;;;;5051633;28;20051;-58
2023/07/04 01:39:00;;;;;;;26.08;23.52;;;16.20;99.90;;;;;;5039692;28;20073;-57
2023/07/04 01:41:26;;;;;;;23.75;21.52;;;16.30;99.90;;;;;;5051304;28;20139;-58
2023/07/04 01:44:04;;;;;;;24.00;21.90;;;16.30;99.90;;;;;;5051082;28;20522;-57
2023/07/04 01:46:30;;;;;;;23.48;21.48;;;16.20;99.90;;;;;;5011880;28;20088;-58
2023/07/04 01:48:55;;;;;;;22.45;20.52;;;16.30;99.90;;;;;;5043223;28;20079;-58
2023/07/04 01:51:30;;;;;;;23.38;21.20;;;16.40;99.90;;;;;;5051368;28;20040;-57
2023/07/04 01:53:56;;;;;;;26.88;24.25;;;16.30;99.90;;;;;;5049692;28;20402;-57
2023/07/04 01:56:22;;;;;;;25.92;23.73;;;16.40;99.90;;;;;;5050084;28;20049;-59
2023/07/04 01:58:47;;;;;;;26.25;23.95;;;16.40;99.90;;;;;;5051227;28;20044;-58
2023/07/04 02:01:13;;;;;;;25.10;23.10;;;16.20;99.90;;;;;;5051135;28;20495;-58
2023/07/04 02:03:39;;;;;;;25.15;22.75;;;16.30;99.90;;;;;;5051120;28;20045;-58
2023/07/04 02:06:05;;;;;;;21.50;19.70;;;16.20;99.90;;;;;;5050606;28;20040;-58
2023/07/04 02:08:30;;;;;;;21.02;19.13;;;16.30;99.90;;;;;;5051124;28;20040;-58
2023/07/04 02:10:56;;;;;;;20.98;19.10;;;16.30;99.90;;;;;;5027379;28;20049;-58
2023/07/04 02:13:22;;;;;;;21.38;19.48;;;16.30;99.90;;;;;;5056347;28;20045;-58
2023/07/04 02:15:48;;;;;;;23.42;21.50;;;16.50;99.90;;;;;;5049012;28;20114;-58
2023/07/04 02:18:14;;;;;;;22.45;20.55;;;16.40;99.90;;;;;;5050411;28;20094;-57
2023/07/04 02:20:40;;;;;;;23.80;21.42;;;16.40;99.90;;;;;;5050836;28;20040;-58
2023/07/04 02:23:06;;;;;;;23.58;21.38;;;16.40;99.90;;;;;;5050524;28;20041;-58
2023/07/04 02:25:31;;;;;;;30.23;26.83;;;16.40;99.90;;;;;;5050644;28;20037;-57
2023/07/04 02:27:57;;;;;;;63.60;39.97;;;16.40;99.90;;;;;;5050482;28;20045;-57
2023/07/04 02:30:22;;;;;;;39.42;30.17;;;16.30;99.90;;;;;;5049144;28;20035;-58
2023/07/04 02:32:48;;;;;;;41.75;29.77;;;15.80;1.00;;;;;;5050999;28;20048;-58
2023/07/04 02:35:14;;;;;;;31.83;28.52;;;15.60;1.00;;;;;;5049606;28;20098;-57
2023/07/04 02:37:40;;;;;;;31.05;27.92;;;15.20;1.00;;;;;;5050079;28;20063;-58
2023/07/04 02:40:06;;;;;;;29.40;26.80;;;14.90;1.00;;;;;;5050783;28;20033;-58
2023/07/04 02:42:32;;;;;;;34.35;30.88;;;14.90;1.00;;;;;;5050706;28;20029;-57
2023/07/04 02:44:57;;;;;;;34.40;31.02;;;14.90;1.00;;;;;;5049838;28;20544;-57
2023/07/04 02:47:26;;;;;;;34.67;31.20;;;14.50;1.00;;;;;;5049935;28;20072;-57
2023/07/04 02:49:53;;;;;;;33.22;29.85;;;14.40;4.80;;;;;;5049610;28;20564;-58
2023/07/04 02:52:20;;;;;;;38.90;31.83;;;14.50;30.90;;;;;;5050525;28;20098;-57
2023/07/04 02:54:46;;;;;;;35.65;32.00;;;14.40;80.50;;;;;;5049866;28;20048;-57
2023/07/04 02:57:14;;;;;;;36.30;32.60;;;14.30;99.90;;;;;;5050299;28;20095;-58
2023/07/04 02:59:40;;;;;;;33.95;30.58;;;14.20;99.90;;;;;;5049757;28;20037;-57
2023/07/04 03:02:05;;;;;;;33.25;30.13;;;14.20;99.90;;;;;;5050452;28;20086;-57
2023/07/04 03:04:31;;;;;;;33.10;29.75;;;14.30;99.90;;;;;;5043198;28;20077;-57
2023/07/04 03:06:57;;;;;;;31.90;29.17;;;14.30;99.90;;;;;;5044092;28;20479;-58
2023/07/04 03:09:23;;;;;;;30.08;27.58;;;14.60;99.90;;;;;;5049484;28;20036;-57
2023/07/04 03:11:49;;;;;;;29.42;26.90;;;14.20;99.90;;;;;;5033516;28;20037;-57
2023/07/04 03:14:14;;;;;;;31.23;28.52;;;14.30;99.90;;;;;;5030753;28;20041;-57
2023/07/04 03:16:40;;;;;;;30.60;28.05;;;14.50;99.90;;;;;;5049909;28;20095;-58
2023/07/04 03:19:05;;;;;;;31.13;28.55;;;14.50;99.90;;;;;;5049575;28;20133;-58
2023/07/04 03:21:31;;;;;;;31.52;28.73;;;14.50;99.90;;;;;;5049787;28;20040;-57
2023/07/04 03:23:56;;;;;;;32.10;29.40;;;14.60;99.90;;;;;;5049183;28;20032;-58
2023/07/04 03:26:22;;;;;;;31.98;29.17;;;14.60;99.90;;;;;;5041598;28;20053;-58
2023/07/04 03:28:48;;;;;;;34.53;31.27;;;14.80;99.90;;;;;;5037681;28;20132;-58
2023/07/04 03:31:13;;;;;;;33.45;30.25;;;14.80;99.90;;;;;;5048572;28;20716;-58
2023/07/04 03:33:39;;;;;;;34.22;31.13;;;14.70;99.90;;;;;;5021031;28;20132;-58
2023/07/04 03:36:06;;;;;;;35.25;31.98;;;14.80;99.90;;;;;;5036072;28;20044;-58
2023/07/04 03:38:31;;;;;;;34.30;31.08;;;14.70;1.00;;;;;;5049468;28;20033;-58
2023/07/04 03:40:58;;;;;;;34.95;31.70;;;14.90;1.00;;;;;;5049703;28;20125;-58
2023/07/04 03:43:25;;;;;;;35.80;32.25;;;14.80;1.00;;;;;;5049344;28;20092;-58
2023/07/04 03:45:51;;;;;;;34.75;31.48;;;14.80;1.00;;;;;;5049122;28;20453;-59
2023/07/04 03:48:17;;;;;;;34.53;31.02;;;15.00;13.40;;;;;;5048921;28;20045;-59
2023/07/04 03:50:43;;;;;;;33.97;30.77;;;14.90;99.90;;;;;;5049459;28;20090;-59
2023/07/04 03:53:09;;;;;;;31.85;28.95;;;15.20;99.90;;;;;;5049768;28;20583;-58
2023/07/04 03:55:35;;;;;;;33.53;30.20;;;15.40;99.90;;;;;;5049282;28;20124;-58
2023/07/04 03:58:02;;;;;;;33.50;30.13;;;15.40;99.90;;;;;;5049380;28;20044;-59
2023/07/04 04:00:27;;;;;;;30.58;27.58;;;15.40;99.90;;;;;;5048066;28;20521;-59
2023/07/04 04:02:53;;;;;;;31.80;28.85;;;15.50;99.90;;;;;;5052113;28;20072;-57
2023/07/04 04:05:19;;;;;;;31.70;28.83;;;15.70;99.90;;;;;;5051817;28;20086;-58
2023/07/04 04:07:48;;;;;;;32.92;29.98;;;15.70;99.90;;;;;;5068763;28;20041;-57
2023/07/04 04:10:17;;;;;;;33.22;29.88;;;15.80;99.90;;;;;;5047201;28;20067;-58
2023/07/04 04:12:43;;;;;;;33.53;29.92;;;15.70;99.90;;;;;;5050540;28;20442;-58
2023/07/04 04:15:08;;;;;;;33.08;29.77;;;15.80;99.90;;;;;;5052645;28;20040;-58
2023/07/04 04:17:34;;;;;;;33.53;30.15;;;16.00;99.90;;;;;;5053041;28;20178;-58
2023/07/04 04:20:04;;;;;;;32.17;29.13;;;16.00;99.90;;;;;;5052934;28;20118;-57
2023/07/04 04:22:30;;;;;;;31.75;28.83;;;16.00;99.90;;;;;;5052955;28;20076;-58
2023/07/04 04:24:56;;;;;;;33.38;30.15;;;16.10;99.90;;;;;;5053007;28;20126;-57
2023/07/04 04:27:26;;;;;;;32.83;29.63;;;16.10;99.90;;;;;;5052782;28;20044;-58
2023/07/04 04:29:53;;;;;;;33.72;30.63;;;15.90;99.90;;;;;;5051798;28;20574;-58
2023/07/04 04:32:18;;;;;;;34.90;31.30;;;16.00;99.90;;;;;;5052463;28;20040;-57
2023/07/04 04:34:44;;;;;;;35.40;31.90;;;16.00;99.90;;;;;;5051667;28;20041;-58
2023/07/04 04:37:09;;;;;;;34.03;30.58;;;16.00;99.90;;;;;;5051158;28;20041;-58
2023/07/04 04:39:36;;;;;;;35.85;31.60;;;16.50;99.90;;;;;;5052697;28;20037;-58
2023/07/04 04:42:01;;;;;;;35.88;32.42;;;16.20;99.90;;;;;;5052415;28;20037;-57
2023/07/04 04:44:27;;;;;;;35.95;32.17;;;16.00;99.90;;;;;;5052251;28;20071;-57
2023/07/04 04:46:53;;;;;;;35.00;31.67;;;16.10;99.90;;;;;;5052474;28;20070;-57
2023/07/04 04:49:37;;;;;;;33.67;30.60;;;16.20;58.00;;;;;;5052417;28;20043;-58
2023/07/04 04:52:03;;;;;;;33.63;30.42;;;16.10;1.00;;;;;;5052460;28;20155;-58
2023/07/04 04:54:29;;;;;;;33.75;30.65;;;16.10;1.00;;;;;;5052152;28;20041;-58
2023/07/04 04:56:54;;;;;;;34.15;31.05;;;16.10;1.00;;;;;;5067405;28;20053;-58
2023/07/04 04:59:20;;;;;;;31.45;28.83;;;16.20;1.00;;;;;;5051939;28;20044;-57
2023/07/04 05:01:45;;;;;;;32.53;29.65;;;16.10;1.00;;;;;;5051292;28;20076;-57
2023/07/04 05:04:11;;;;;;;31.77;28.77;;;16.50;1.00;;;;;;5052151;28;20055;-58
2023/07/04 05:06:36;;;;;;;32.92;29.58;;;16.10;1.00;;;;;;5041656;28;20069;-58
2023/07/04 05:09:02;;;;;;;33.85;30.55;;;16.10;99.90;;;;;;5041134;28;20041;-58
2023/07/04 05:11:30;;;;;;;32.42;29.30;;;16.30;99.90;;;;;;5031354;28;20044;-58
2023/07/04 05:13:56;;;;;;;34.10;30.58;;;16.20;99.90;;;;;;5066867;28;20466;-58
2023/07/04 05:16:21;;;;;;;33.50;30.40;;;16.20;99.90;;;;;;5065201;28;20045;-57
2023/07/04 05:18:49;;;;;;;33.60;30.33;;;16.40;99.90;;;;;;5072766;28;20044;-57
2023/07/04 05:21:20;;;;;;;32.58;29.33;;;16.30;99.90;;;;;;5050104;28;20752;-58
2023/07/04 05:23:48;;;;;;;33.35;30.35;;;16.50;99.90;;;;;;5051996;28;20403;-58
2023/07/04 05:26:26;;;;;;;33.30;30.10;;;16.60;99.90;;;;;;5045778;28;20045;-58
2023/07/04 05:28:54;;;;;;;33.20;30.02;;;16.50;99.90;;;;;;5039713;28;20047;-58
2023/07/04 05:31:23;;;;;;;34.78;31.48;;;16.40;99.90;;;;;;5046051;28;20060;-57
2023/07/04 05:33:50;;;;;;;34.13;30.90;;;16.60;99.90;;;;;;5039465;28;20522;-57
2023/07/04 05:36:19;;;;;;;32.55;29.52;;;16.60;99.90;;;;;;5045722;28;20078;-58
2023/07/04 05:38:53;;;;;;;31.77;29.02;;;16.60;99.90;;;;;;5043083;28;20072;-57
2023/07/04 05:41:23;;;;;;;34.58;31.17;;;16.50;99.90;;;;;;5045517;28;20068;-58
2023/07/04 05:43:49;;;;;;;34.05;30.80;;;16.60;99.90;;;;;;5051091;28;20053;-57
2023/07/04 05:46:16;;;;;;;32.03;29.20;;;16.60;99.90;;;;;;5046334;28;20507;-57
2023/07/04 05:48:42;;;;;;;31.38;28.50;;;16.60;99.90;;;;;;5041413;28;20041;-58
2023/07/04 05:51:11;;;;;;;30.27;27.25;;;16.70;99.90;;;;;;5048436;28;20380;-58
2023/07/04 05:53:38;;;;;;;32.20;29.20;;;16.80;99.90;;;;;;5050803;28;20120;-57
2023/07/04 05:56:08;;;;;;;32.03;29.15;;;16.70;99.90;;;;;;5048134;28;20570;-58
2023/07/04 05:58:38;;;;;;;29.60;26.83;;;16.80;99.90;;;;;;5051334;28;20037;-58
2023/07/04 06:01:13;;;;;;;31.20;28.40;;;16.90;99.90;;;;;;5048851;28;20087;-58
2023/07/04 06:03:39;;;;;;;29.70;27.20;;;16.80;99.90;;;;;;5037440;28;20120;-58
2023/07/04 06:06:06;;;;;;;30.23;27.35;;;16.80;99.90;;;;;;5048719;28;20501;-57
2023/07/04 06:08:33;;;;;;;30.33;27.67;;;16.80;83.80;;;;;;5036253;28;20033;-57
2023/07/04 06:11:04;;;;;;;29.92;27.30;;;16.80;34.50;;;;;;5028454;28;20466;-58
2023/07/04 06:13:31;;;;;;;29.42;26.88;;;16.80;1.00;;;;;;5037010;28;20091;-57
2023/07/04 06:15:59;;;;;;;31.30;28.50;;;16.90;1.00;;;;;;5049786;28;20403;-58
2023/07/04 06:18:24;;;;;;;28.88;26.10;;;16.90;1.00;;;;;;5031102;28;20048;-58
2023/07/04 06:20:51;;;;;;;27.88;25.35;;;17.00;1.00;;;;;;5033910;28;20028;-58
2023/07/04 06:23:18;;;;;;;27.88;25.25;;;17.10;1.00;;;;;;5033247;28;20048;-58
2023/07/04 06:25:44;;;;;;;27.63;25.13;;;17.20;1.00;;;;;;5050801;28;20041;-58
2023/07/04 06:28:10;;;;;;;26.40;24.10;;;17.30;1.00;;;;;;5034055;28;20099;-58
2023/07/04 06:30:38;;;;;;;27.60;24.80;;;17.30;1.00;;;;;;5050650;28;20052;-59
2023/07/04 06:33:04;;;;;;;27.80;24.85;;;17.70;1.00;;;;;;5040551;28;20037;-58
2023/07/04 06:35:32;;;;;;;26.35;23.98;;;17.40;1.00;;;;;;5050254;28;20150;-58
2023/07/04 06:37:58;;;;;;;23.75;21.63;;;17.50;1.00;;;;;;5048625;28;20051;-57
2023/07/04 06:40:23;;;;;;;27.65;25.23;;;17.60;1.00;;;;;;5047349;28;20487;-58
2023/07/04 06:42:49;;;;;;;23.70;21.58;;;17.50;1.00;;;;;;5023739;28;20058;-58
2023/07/04 06:45:14;;;;;;;24.08;21.98;;;17.60;1.00;;;;;;5032029;28;20041;-58
2023/07/04 06:47:40;;;;;;;24.23;21.48;;;17.70;99.90;;;;;;5041248;28;20059;-58
2023/07/04 06:50:06;;;;;;;24.30;21.98;;;17.70;99.90;;;;;;5035749;28;20045;-58
2023/07/04 06:52:35;;;;;;;23.95;21.75;;;17.90;99.90;;;;;;5030456;28;20045;-58
2023/07/04 06:55:00;;;;;;;23.70;21.40;;;18.20;99.90;;;;;;5048491;28;20035;-58
2023/07/04 06:57:26;;;;;;;27.13;22.63;;;18.10;99.90;;;;;;5049152;28;20049;-58
2023/07/04 06:59:52;;;;;;;27.35;24.45;;;18.00;99.90;;;;;;5050095;28;20506;-58
2023/07/04 07:02:17;;;;;;;23.45;21.45;;;18.10;99.90;;;;;;5041071;28;20045;-57
2023/07/04 07:04:43;;;;;;;23.65;21.52;;;18.20;99.90;;;;;;5025114;28;20038;-57
2023/07/04 07:07:10;;;;;;;24.15;21.92;;;18.20;99.90;;;;;;5018185;28;20389;-57
2023/07/04 07:09:37;;;;;;;26.08;23.63;;;18.30;99.90;;;;;;5028550;28;20511;-58
2023/07/04 07:12:04;;;;;;;25.92;23.45;;;18.40;99.90;;;;;;5058184;28;20465;-57
2023/07/04 07:14:29;;;;;;;27.05;24.27;;;18.30;99.90;;;;;;5018454;28;20525;-58
2023/07/04 07:16:58;;;;;;;28.23;25.05;;;18.20;99.90;;;;;;5028060;28;20030;-58
2023/07/04 07:19:25;;;;;;;24.42;22.27;;;18.30;99.90;;;;;;5030089;28;20792;-58
2023/07/04 07:21:52;;;;;;;25.50;23.25;;;18.30;99.90;;;;;;5061733;28;20089;-58
2023/07/04 07:24:17;;;;;;;25.63;23.27;;;18.30;99.90;;;;;;5017757;28;20037;-58
2023/07/04 07:26:43;;;;;;;24.48;22.27;;;18.50;99.90;;;;;;5013185;28;20059;-58
2023/07/04 07:29:08;;;;;;;26.35;23.75;;;18.50;99.90;;;;;;5030216;28;20041;-58
2023/07/04 07:31:35;;;;;;;28.38;25.58;;;18.60;99.90;;;;;;5029940;28;20087;-58
2023/07/04 07:34:02;;;;;;;25.20;22.92;;;18.60;99.90;;;;;;5032359;28;20080;-58
2023/07/04 07:36:30;;;;;;;26.90;24.17;;;18.60;99.90;;;;;;5029776;28;20514;-58
2023/07/04 07:38:57;;;;;;;28.17;25.05;;;18.50;99.90;;;;;;5029922;28;20042;-58
2023/07/04 07:41:27;;;;;;;28.40;25.13;;;18.50;99.90;;;;;;5029906;28;20514;-58
2023/07/04 07:43:53;;;;;;;30.20;26.98;;;18.60;99.90;;;;;;5026546;28;20049;-58
2023/07/04 07:46:19;;;;;;;28.60;25.70;;;18.50;99.90;;;;;;5029790;28;20098;-57
2023/07/04 07:48:45;;;;;;;32.05;28.70;;;18.40;99.90;;;;;;5029496;28;20128;-58
2023/07/04 07:51:12;;;;;;;30.33;27.30;;;18.40;99.90;;;;;;5029910;28;20045;-58
2023/07/04 07:53:40;;;;;;;30.02;26.88;;;18.40;99.90;;;;;;5029686;28;20116;-57
2023/07/04 07:56:07;;;;;;;34.70;27.75;;;18.30;99.90;;;;;;5029449;28;20044;-58
2023/07/04 07:58:34;;;;;;;31.92;28.80;;;18.50;99.90;;;;;;5030063;28;20041;-58
2023/07/04 08:01:00;;;;;;;33.42;29.88;;;18.50;99.90;;;;;;5029546;28;20037;-58
2023/07/04 08:03:27;;;;;;;33.97;30.65;;;18.50;99.90;;;;;;5016639;28;20038;-57
2023/07/04 08:05:52;;;;;;;31.27;28.08;;;18.40;99.90;;;;;;5009900;28;20125;-57
2023/07/04 08:08:18;;;;;;;31.42;27.70;;;18.50;99.90;;;;;;5023764;28;20490;-57
2023/07/04 08:10:43;;;;;;;27.55;24.35;;;18.70;99.90;;;;;;5019921;28;20467;-58
2023/07/04 08:13:10;;;;;;;23.40;21.23;;;19.10;99.90;;;;;;5061592;28;20038;-58
2023/07/04 08:15:36;;;;;;;25.63;22.88;;;19.40;99.90;;;;;;5012082;28;20057;-58
2023/07/04 08:18:09;;;;;;;26.35;23.58;;;19.90;99.90;;;;;;5029362;28;20052;-58
2023/07/04 08:20:35;;;;;;;21.40;19.42;;;19.60;99.90;;;;;;5029636;28;20041;-58
2023/07/04 08:23:01;;;;;;;21.80;19.70;;;19.60;99.90;;;;;;5044816;28;20041;-58
2023/07/04 08:25:27;;;;;;;20.38;17.15;;;19.70;77.40;;;;;;5029830;28;20033;-59
2023/07/04 08:27:53;;;;;;;20.17;18.05;;;19.90;76.30;;;;;;5029739;28;20044;-58
2023/07/04 08:30:19;;;;;;;18.55;16.25;;;20.10;64.60;;;;;;5029602;28;20091;-58
2023/07/04 08:32:45;;;;;;;17.17;15.48;;;19.90;25.80;;;;;;5029428;28;20041;-58
2023/07/04 08:35:11;;;;;;;17.40;15.57;;;20.10;13.10;;;;;;5029589;28;20558;-57
2023/07/04 08:37:36;;;;;;;16.27;14.40;;;20.00;11.00;;;;;;5028999;28;20090;-58
2023/07/04 08:40:03;;;;;;;24.25;20.48;;;20.20;8.10;;;;;;5029639;28;20067;-57
2023/07/04 08:42:32;;;;;;;21.40;17.90;;;20.10;8.80;;;;;;5028873;28;20048;-58
2023/07/04 08:44:59;;;;;;;21.75;19.15;;;20.20;12.90;;;;;;5029411;28;20042;-58
2023/07/04 08:47:25;;;;;;;20.30;18.33;;;20.00;4.40;;;;;;5031215;28;20052;-58
2023/07/04 08:50:20;;;;;;;20.13;18.13;;;19.90;12.00;;;;;;5030870;28;20029;-58
2023/07/04 08:53:08;;;;;;;19.42;16.55;;;19.90;1.00;;;;;;5031124;28;20288;-58
2023/07/04 08:55:43;;;;;;;14.48;12.85;;;20.10;1.00;;;;;;5032659;28;20458;-58
2023/07/04 08:58:13;;;;;;;20.13;18.38;;;20.40;1.00;;;;;;5032599;28;20205;-59
2023/07/04 09:00:42;;;;;;;20.50;16.02;;;20.60;1.00;;;;;;5033070;28;20594;-58
2023/07/04 09:03:35;;;;;;;20.75;16.30;;;20.70;1.00;;;;;;5032432;28;20043;-58
2023/07/04 09:06:20;;;;;;;19.20;17.23;;;20.90;1.00;;;;;;5032441;28;20034;-58
2023/07/04 09:08:59;;;;;;;23.92;21.33;;;20.80;1.00;;;;;;5042601;28;20453;-58
2023/07/04 09:11:27;;;;;;;24.77;22.20;;;20.70;1.00;;;;;;5024865;28;20034;-58
2023/07/04 09:14:01;;;;;;;31.38;28.20;;;20.70;1.00;;;;;;5027530;28;20075;-58
2023/07/04 09:16:39;;;;;;;28.83;26.08;;;20.30;1.00;;;;;;5032230;28;20080;-58
2023/07/04 09:19:08;;;;;;;27.63;25.00;;;20.00;1.00;;;;;;5047378;28;20033;-58
2023/07/04 09:21:36;;;;;;;24.63;18.88;;;20.00;1.00;;;;;;5052550;28;20122;-58
2023/07/04 09:24:02;;;;;;;23.08;20.73;;;20.40;1.00;;;;;;5036278;28;20064;-58
2023/07/04 09:26:40;;;;;;;20.02;17.88;;;20.60;1.00;;;;;;5031030;28;20506;-58
2023/07/04 09:29:06;;;;;;;19.63;16.05;;;20.80;1.00;;;;;;5029624;28;20120;-58
2023/07/04 09:31:37;;;;;;;19.92;17.08;;;21.00;1.00;;;;;;5014154;28;20046;-58
2023/07/04 09:34:25;;;;;;;22.55;20.27;;;21.00;1.00;;;;;;5032026;28;20407;-58
2023/07/04 09:36:54;;;;;;;24.65;16.83;;;21.10;1.00;;;;;;5031806;28;20045;-58
2023/07/04 09:39:20;;;;;;;21.52;19.20;;;21.20;1.00;;;;;;5031647;28;20041;-58
2023/07/04 09:41:56;;;;;;;22.50;20.23;;;21.00;1.00;;;;;;5031398;28;20044;-58
2023/07/04 09:44:32;;;;;;;27.38;24.55;;;20.80;1.00;;;;;;5031709;28;20411;-58
2023/07/04 09:47:00;;;;;;;28.02;25.10;;;20.60;1.00;;;;;;5023825;28;20183;-58
2023/07/04 09:49:33;;;;;;;26.95;24.35;;;20.60;1.00;;;;;;5029062;28;20505;-58
2023/07/04 09:52:21;;;;;;;24.85;21.90;;;20.60;1.00;;;;;;5031386;28;20560;-58
2023/07/04 09:55:13;;;;;;;25.55;23.15;;;20.80;1.00;;;;;;5031840;28;20045;-58
2023/07/04 09:57:39;;;;;;;25.48;22.95;;;20.70;1.00;;;;;;5030416;28;20041;-58
2023/07/04 10:00:24;;;;;;;30.65;27.95;;;20.80;1.00;;;;;;5030014;28;20045;-58
2023/07/04 10:02:56;;;;;;;30.40;27.50;;;21.10;1.00;;;;;;5031651;28;20042;-58
2023/07/04 10:05:27;;;;;;;23.67;19.02;;;21.50;1.00;;;;;;5031440;28;20040;-58
2023/07/04 10:08:05;;;;;;;27.48;24.83;;;21.50;1.00;;;;;;5032317;28;20084;-59
2023/07/04 10:10:55;;;;;;;35.53;32.28;;;21.60;1.00;;;;;;5025988;28;20042;-58
2023/07/04 10:13:25;;;;;;;44.45;40.30;;;21.40;1.00;;;;;;5033226;28;20137;-58
2023/07/04 10:15:51;;;;;;;51.72;47.13;;;20.30;1.00;;;;;;5031524;28;20144;-57
2023/07/04 10:18:26;;;;;;;59.33;53.88;;;19.90;1.00;;;;;;5022207;28;20049;-58
2023/07/04 10:20:55;;;;;;;54.92;50.10;;;19.60;1.00;;;;;;5028515;28;20049;-58
2023/07/04 10:23:22;;;;;;;58.35;52.70;;;19.50;1.00;;;;;;5030906;28;20048;-57
2023/07/04 10:25:52;;;;;;;48.63;44.42;;;19.50;1.00;;;;;;5030544;28;20091;-57
2023/07/04 10:28:21;;;;;;;50.03;45.30;;;19.70;1.00;;;;;;5031098;28;20041;-58
2023/07/04 10:30:55;;;;;;;48.30;44.53;;;20.10;1.00;;;;;;5022641;28;20107;-58
2023/07/04 10:33:30;;;;;;;57.95;52.80;;;20.20;1.00;;;;;;5026021;28;20049;-57
2023/07/04 10:35:56;;;;;;;49.43;45.00;;;20.50;1.00;;;;;;5047546;28;20558;-58
2023/07/04 10:38:46;;;;;;;60.22;54.85;;;20.80;1.00;;;;;;5030489;28;20091;-58
2023/07/04 10:41:26;;;;;;;66.10;60.67;;;20.90;1.00;;;;;;5028309;28;20048;-57
2023/07/04 10:44:01;;;;;;;59.55;54.30;;;20.90;1.00;;;;;;5029009;28;20054;-58
2023/07/04 10:46:30;;;;;;;45.50;41.92;;;21.00;1.00;;;;;;5024814;28;20160;-58
2023/07/04 10:49:04;;;;;;;38.30;34.58;;;21.20;1.00;;;;;;5028864;28;20041;-58
2023/07/04 10:51:34;;;;;;;47.63;43.80;;;21.60;1.00;;;;;;5029806;28;20042;-59
2023/07/04 10:54:00;;;;;;;28.30;26.00;;;21.20;1.00;;;;;;5014568;28;20428;-58
2023/07/04 10:56:32;;;;;;;29.02;26.63;;;21.20;1.00;;;;;;5026070;28;20037;-57
2023/07/04 10:59:10;;;;;;;28.13;25.73;;;21.10;1.00;;;;;;5030666;28;20034;-58
2023/07/04 11:01:44;;;;;;;21.85;19.60;;;21.40;1.00;;;;;;5030521;28;20041;-58
2023/07/04 11:04:22;;;;;;;18.73;13.23;;;21.40;1.00;;;;;;5029820;28;20064;-58
2023/07/04 11:07:00;;;;;;;18.67;12.38;;;21.40;1.00;;;;;;5062118;28;20053;-58
2023/07/04 11:09:27;;;;;;;16.52;13.73;;;21.10;1.00;;;;;;5029144;28;20140;-58
2023/07/04 11:12:01;;;;;;;8.98;4.70;;;21.10;1.00;;;;;;5024984;28;20029;-58
2023/07/04 11:14:30;;;;;;;12.50;6.78;;;21.10;1.00;;;;;;5034398;28;20092;-58
2023/07/04 11:16:58;;;;;;;13.43;7.78;;;21.20;1.00;;;;;;5026443;28;20380;-58
2023/07/04 11:19:26;;;;;;;10.50;4.95;;;21.20;1.00;;;;;;5011614;28;20404;-58
2023/07/04 11:22:02;;;;;;;11.70;4.28;;;21.20;1.00;;;;;;5027774;28;20136;-58
2023/07/04 11:24:43;;;;;;;16.88;7.85;;;21.30;1.00;;;;;;5030485;28;20132;-58
2023/07/04 11:27:14;;;;;;;12.13;6.50;;;21.00;1.00;;;;;;5030328;28;20049;-58
2023/07/04 11:29:50;;;;;;;11.38;6.28;;;20.90;1.00;;;;;;5030058;28;20041;-57
2023/07/04 11:32:26;;;;;;;16.52;10.77;;;21.00;1.00;;;;;;5015672;28;20535;-58
2023/07/04 11:35:13;;;;;;;12.35;5.22;;;20.70;1.00;;;;;;5010786;28;20069;-57
2023/07/04 11:37:54;;;;;;;14.18;9.30;;;20.60;1.00;;;;;;5028502;28;20057;-58
2023/07/04 11:40:29;;;;;;;14.15;6.22;;;21.00;1.00;;;;;;5028709;28;20426;-58
2023/07/04 11:43:12;;;;;;;12.57;4.10;;;20.80;1.00;;;;;;5028230;28;20512;-58
2023/07/04 11:45:39;;;;;;;15.10;6.35;;;20.90;1.00;;;;;;5027710;28;20037;-58
2023/07/04 11:48:10;;;;;;;11.63;4.80;;;21.00;1.00;;;;;;5014216;28;20049;-57
2023/07/04 11:51:06;;;;;;;17.17;4.43;;;21.00;1.00;;;;;;5015475;28;20045;-57
2023/07/04 11:53:42;;;;;;;17.00;4.25;;;21.10;1.00;;;;;;5029504;28;20176;-58
2023/07/04 11:56:32;;;;;;;14.95;3.67;;;21.20;1.00;;;;;;5029352;28;20120;-58
2023/07/04 11:59:13;;;;;;;13.88;4.32;;;21.10;1.00;;;;;;5009924;28;20084;-58
2023/07/04 12:01:58;;;;;;;14.07;6.07;;;21.00;1.00;;;;;;5023195;28;20486;-58
2023/07/04 12:04:33;;;;;;;9.95;4.15;;;20.90;1.00;;;;;;5029903;28;20049;-58
2023/07/04 12:07:26;;;;;;;12.85;4.10;;;20.90;1.00;;;;;;5029704;28;20048;-58
2023/07/04 12:10:01;;;;;;;13.50;3.83;;;20.90;1.00;;;;;;5029391;28;20052;-57
2023/07/04 12:12:29;;;;;;;11.27;4.20;;;20.80;1.00;;;;;;5028107;28;20116;-58
2023/07/04 12:15:10;;;;;;;16.50;5.82;;;20.90;1.00;;;;;;5029770;28;20134;-58
2023/07/04 12:17:41;;;;;;;11.48;4.05;;;20.90;1.00;;;;;;5041415;28;20050;-58
2023/07/04 12:20:11;;;;;;;14.48;4.20;;;20.90;1.00;;;;;;5010223;28;20050;-58
2023/07/04 12:22:53;;;;;;;10.23;3.58;;;21.00;1.00;;;;;;5032439;28;20033;-58
2023/07/04 12:25:32;;;;;;;12.85;4.15;;;20.90;1.00;;;;;;5033200;28;20065;-58
2023/07/04 12:28:00;;;;;;;13.10;6.55;;;20.90;1.00;;;;;;5028563;28;20514;-57
2023/07/04 12:30:25;;;;;;;12.30;7.20;;;20.90;1.00;;;;;;5033278;28;20048;-58
2023/07/04 12:32:52;;;;;;;12.07;4.03;;;20.90;1.00;;;;;;5033201;28;20041;-58
2023/07/04 12:35:22;;;;;;;11.90;3.78;;;21.00;1.00;;;;;;5032882;28;20400;-58
2023/07/04 12:37:51;;;;;;;11.93;4.93;;;20.90;1.00;;;;;;5033226;28;20041;-58
2023/07/04 12:40:21;;;;;;;11.40;3.50;;;21.00;1.00;;;;;;5032987;28;20063;-58
2023/07/04 12:42:48;;;;;;;10.20;4.00;;;21.00;1.00;;;;;;5032899;28;20077;-57
2023/07/04 12:45:21;;;;;;;14.25;4.82;;;20.90;1.00;;;;;;5032998;28;20064;-58